sensor_id;sensor_type;location;lat;lon;timestamp;P1;durP1;ratioP1;P2;durP2;ratioP2
13660;SDS011;6903;49.480;11.102;2022-07-29T00:01:17;6.10;;;2.60;;
13660;SDS011;6903;49.480;11.102;2022-07-29T00:03:43;3.38;;;1.95;;
13660;SDS011;6903;49.480;11.102;2022-07-29T00:06:08;3.95;;;2.15;;
13660;SDS011;6903;49.480;11.102;2022-07-29T00:08:33;2.97;;;2.03;;
13660;SDS011;6903;49.480;11.102;2022-07-29T00:10:59;3.15;;;2.30;;
13660;SDS011;6903;49.480;11.102;2022-07-29T00:13:24;5.72;;;2.30;;
13660;SDS011;6903;49.480;11.102;2022-07-29T00:15:49;3.83;;;2.45;;
13660;SDS011;6903;49.480;11.102;2022-07-29T00:18:15;4.32;;;2.50;;
13660;SDS011;6903;49.480;11.102;2022-07-29T00:20:40;5.10;;;2.30;;
13660;SDS011;6903;49.480;11.102;2022-07-29T00:23:05;7.47;;;2.65;;
13660;SDS011;6903;49.480;11.102;2022-07-29T00:25:31;3.05;;;2.13;;
13660;SDS011;6903;49.480;11.102;2022-07-29T00:27:56;5.35;;;2.40;;
13660;SDS011;6903;49.480;11.102;2022-07-29T00:30:21;4.85;;;2.47;;
13660;SDS011;6903;49.480;11.102;2022-07-29T00:32:47;3.97;;;2.13;;
13660;SDS011;6903;49.480;11.102;2022-07-29T00:35:12;5.65;;;2.13;;
13660;SDS011;6903;49.480;11.102;2022-07-29T00:37:56;3.60;;;2.40;;
13660;SDS011;6903;49.480;11.102;2022-07-29T00:40:21;5.32;;;2.50;;
13660;SDS011;6903;49.480;11.102;2022-07-29T00:42:48;4.40;;;2.15;;
13660;SDS011;6903;49.480;11.102;2022-07-29T00:45:15;3.25;;;2.25;;
13660;SDS011;6903;49.480;11.102;2022-07-29T00:47:41;4.30;;;1.80;;
13660;SDS011;6903;49.480;11.102;2022-07-29T00:50:07;4.60;;;2.00;;
13660;SDS011;6903;49.480;11.102;2022-07-29T00:52:35;2.58;;;2.00;;
13660;SDS011;6903;49.480;11.102;2022-07-29T00:55:03;4.50;;;1.90;;
13660;SDS011;6903;49.480;11.102;2022-07-29T00:57:29;4.82;;;2.20;;
13660;SDS011;6903;49.480;11.102;2022-07-29T00:59:55;3.10;;;2.13;;
13660;SDS011;6903;49.480;11.102;2022-07-29T01:02:20;3.58;;;2.10;;
13660;SDS011;6903;49.480;11.102;2022-07-29T01:04:46;3.75;;;2.25;;
13660;SDS011;6903;49.480;11.102;2022-07-29T01:07:11;2.75;;;1.90;;
13660;SDS011;6903;49.480;11.102;2022-07-29T01:09:37;5.18;;;2.40;;
13660;SDS011;6903;49.480;11.102;2022-07-29T01:12:03;4.63;;;2.22;;
13660;SDS011;6903;49.480;11.102;2022-07-29T01:14:29;3.78;;;2.10;;
13660;SDS011;6903;49.480;11.102;2022-07-29T01:17:00;4.32;;;2.20;;
13660;SDS011;6903;49.480;11.102;2022-07-29T01:25:04;5.78;;;2.30;;
13660;SDS011;6903;49.480;11.102;2022-07-29T01:28:38;2.63;;;2.00;;
13660;SDS011;6903;49.480;11.102;2022-07-29T01:30:54;5.07;;;2.40;;
13660;SDS011;6903;49.480;11.102;2022-07-29T01:33:20;2.83;;;1.92;;
13660;SDS011;6903;49.480;11.102;2022-07-29T01:36:13;4.10;;;2.17;;
13660;SDS011;6903;49.480;11.102;2022-07-29T01:38:42;2.50;;;2.28;;
13660;SDS011;6903;49.480;11.102;2022-07-29T01:41:17;3.70;;;2.40;;
13660;SDS011;6903;49.480;11.102;2022-07-29T01:43:54;3.90;;;2.38;;
13660;SDS011;6903;49.480;11.102;2022-07-29T01:46:34;4.15;;;2.33;;
13660;SDS011;6903;49.480;11.102;2022-07-29T01:49:08;5.45;;;2.50;;
13660;SDS011;6903;49.480;11.102;2022-07-29T01:54:19;2.60;;;2.10;;
13660;SDS011;6903;49.480;11.102;2022-07-29T01:56:57;4.28;;;1.92;;
13660;SDS011;6903;49.480;11.102;2022-07-29T01:59:24;3.22;;;2.45;;
13660;SDS011;6903;49.480;11.102;2022-07-29T02:01:52;3.83;;;2.10;;
13660;SDS011;6903;49.480;11.102;2022-07-29T02:04:19;5.68;;;2.47;;
13660;SDS011;6903;49.480;11.102;2022-07-29T02:06:45;4.35;;;2.47;;
13660;SDS011;6903;49.480;11.102;2022-07-29T02:09:14;6.13;;;2.53;;
13660;SDS011;6903;49.480;11.102;2022-07-29T02:11:42;2.75;;;2.10;;
13660;SDS011;6903;49.480;11.102;2022-07-29T02:14:12;5.38;;;2.08;;
13660;SDS011;6903;49.480;11.102;2022-07-29T02:16:40;5.03;;;2.28;;
13660;SDS011;6903;49.480;11.102;2022-07-29T02:19:06;3.28;;;1.88;;
13660;SDS011;6903;49.480;11.102;2022-07-29T02:21:34;6.32;;;2.60;;
13660;SDS011;6903;49.480;11.102;2022-07-29T02:24:00;3.83;;;2.30;;
13660;SDS011;6903;49.480;11.102;2022-07-29T02:26:27;3.50;;;2.08;;
13660;SDS011;6903;49.480;11.102;2022-07-29T02:28:56;3.05;;;2.28;;
13660;SDS011;6903;49.480;11.102;2022-07-29T02:31:25;3.97;;;2.20;;
13660;SDS011;6903;49.480;11.102;2022-07-29T02:33:54;4.22;;;2.50;;
13660;SDS011;6903;49.480;11.102;2022-07-29T02:36:21;4.57;;;2.30;;
13660;SDS011;6903;49.480;11.102;2022-07-29T02:38:48;3.80;;;2.25;;
13660;SDS011;6903;49.480;11.102;2022-07-29T02:41:16;4.70;;;2.35;;
13660;SDS011;6903;49.480;11.102;2022-07-29T02:43:48;4.97;;;2.35;;
13660;SDS011;6903;49.480;11.102;2022-07-29T02:46:21;3.97;;;2.22;;
13660;SDS011;6903;49.480;11.102;2022-07-29T02:48:57;4.40;;;2.50;;
13660;SDS011;6903;49.480;11.102;2022-07-29T02:51:32;2.50;;;2.10;;
13660;SDS011;6903;49.480;11.102;2022-07-29T02:54:06;6.65;;;2.45;;
13660;SDS011;6903;49.480;11.102;2022-07-29T02:56:34;5.55;;;2.70;;
13660;SDS011;6903;49.480;11.102;2022-07-29T02:59:01;3.33;;;2.15;;
13660;SDS011;6903;49.480;11.102;2022-07-29T03:01:31;4.22;;;2.10;;
13660;SDS011;6903;49.480;11.102;2022-07-29T03:03:59;5.13;;;2.30;;
13660;SDS011;6903;49.480;11.102;2022-07-29T03:06:28;3.67;;;2.50;;
13660;SDS011;6903;49.480;11.102;2022-07-29T03:08:55;5.32;;;2.50;;
13660;SDS011;6903;49.480;11.102;2022-07-29T03:11:23;4.20;;;2.22;;
13660;SDS011;6903;49.480;11.102;2022-07-29T03:13:49;6.97;;;2.40;;
13660;SDS011;6903;49.480;11.102;2022-07-29T03:16:15;3.65;;;2.45;;
13660;SDS011;6903;49.480;11.102;2022-07-29T03:18:43;5.47;;;2.17;;
13660;SDS011;6903;49.480;11.102;2022-07-29T03:21:08;3.50;;;2.20;;
13660;SDS011;6903;49.480;11.102;2022-07-29T03:23:34;3.67;;;1.98;;
13660;SDS011;6903;49.480;11.102;2022-07-29T03:25:59;3.22;;;2.17;;
13660;SDS011;6903;49.480;11.102;2022-07-29T03:28:25;3.58;;;2.38;;
13660;SDS011;6903;49.480;11.102;2022-07-29T03:30:52;6.10;;;2.40;;
13660;SDS011;6903;49.480;11.102;2022-07-29T03:33:18;7.57;;;2.35;;
13660;SDS011;6903;49.480;11.102;2022-07-29T03:35:43;3.30;;;2.08;;
13660;SDS011;6903;49.480;11.102;2022-07-29T03:38:08;3.80;;;2.30;;
13660;SDS011;6903;49.480;11.102;2022-07-29T03:40:35;5.13;;;2.40;;
13660;SDS011;6903;49.480;11.102;2022-07-29T03:43:05;5.45;;;2.25;;
13660;SDS011;6903;49.480;11.102;2022-07-29T03:45:33;3.08;;;2.25;;
13660;SDS011;6903;49.480;11.102;2022-07-29T03:48:07;5.43;;;2.30;;
13660;SDS011;6903;49.480;11.102;2022-07-29T03:50:35;2.83;;;2.28;;
13660;SDS011;6903;49.480;11.102;2022-07-29T03:53:01;5.15;;;2.60;;
13660;SDS011;6903;49.480;11.102;2022-07-29T03:55:27;6.57;;;2.35;;
13660;SDS011;6903;49.480;11.102;2022-07-29T03:57:53;4.25;;;2.28;;
13660;SDS011;6903;49.480;11.102;2022-07-29T04:00:21;4.40;;;2.13;;
13660;SDS011;6903;49.480;11.102;2022-07-29T04:02:48;4.00;;;2.30;;
13660;SDS011;6903;49.480;11.102;2022-07-29T04:05:14;2.95;;;2.20;;
13660;SDS011;6903;49.480;11.102;2022-07-29T04:07:43;4.28;;;2.20;;
13660;SDS011;6903;49.480;11.102;2022-07-29T04:10:12;3.92;;;2.35;;
13660;SDS011;6903;49.480;11.102;2022-07-29T04:12:37;5.10;;;2.30;;
13660;SDS011;6903;49.480;11.102;2022-07-29T04:15:03;5.43;;;2.00;;
13660;SDS011;6903;49.480;11.102;2022-07-29T04:17:29;2.30;;;2.10;;
13660;SDS011;6903;49.480;11.102;2022-07-29T04:19:54;3.58;;;2.20;;
13660;SDS011;6903;49.480;11.102;2022-07-29T04:22:19;4.35;;;2.58;;
13660;SDS011;6903;49.480;11.102;2022-07-29T04:24:45;3.92;;;2.03;;
13660;SDS011;6903;49.480;11.102;2022-07-29T04:27:10;3.20;;;2.30;;
13660;SDS011;6903;49.480;11.102;2022-07-29T04:29:35;4.80;;;2.38;;
13660;SDS011;6903;49.480;11.102;2022-07-29T04:32:01;4.18;;;2.42;;
13660;SDS011;6903;49.480;11.102;2022-07-29T04:34:26;4.25;;;2.30;;
13660;SDS011;6903;49.480;11.102;2022-07-29T04:36:51;4.90;;;2.47;;
13660;SDS011;6903;49.480;11.102;2022-07-29T04:39:17;3.97;;;2.33;;
13660;SDS011;6903;49.480;11.102;2022-07-29T04:41:43;3.08;;;2.00;;
13660;SDS011;6903;49.480;11.102;2022-07-29T04:44:09;3.25;;;2.40;;
13660;SDS011;6903;49.480;11.102;2022-07-29T04:46:34;3.70;;;2.30;;
13660;SDS011;6903;49.480;11.102;2022-07-29T04:49:00;4.55;;;1.95;;
13660;SDS011;6903;49.480;11.102;2022-07-29T04:51:26;3.80;;;2.25;;
13660;SDS011;6903;49.480;11.102;2022-07-29T04:53:52;6.10;;;2.80;;
13660;SDS011;6903;49.480;11.102;2022-07-29T04:56:17;4.63;;;2.20;;
13660;SDS011;6903;49.480;11.102;2022-07-29T04:58:42;3.33;;;2.47;;
13660;SDS011;6903;49.480;11.102;2022-07-29T05:01:08;6.70;;;2.60;;
13660;SDS011;6903;49.480;11.102;2022-07-29T05:03:33;4.03;;;2.65;;
13660;SDS011;6903;49.480;11.102;2022-07-29T05:05:58;2.67;;;2.45;;
13660;SDS011;6903;49.480;11.102;2022-07-29T05:08:24;7.45;;;2.80;;
13660;SDS011;6903;49.480;11.102;2022-07-29T05:10:49;5.50;;;2.60;;
13660;SDS011;6903;49.480;11.102;2022-07-29T05:13:14;2.63;;;2.42;;
13660;SDS011;6903;49.480;11.102;2022-07-29T05:15:41;7.40;;;2.42;;
13660;SDS011;6903;49.480;11.102;2022-07-29T05:18:06;4.32;;;2.35;;
13660;SDS011;6903;49.480;11.102;2022-07-29T05:20:31;2.83;;;2.17;;
13660;SDS011;6903;49.480;11.102;2022-07-29T05:22:58;3.60;;;2.40;;
13660;SDS011;6903;49.480;11.102;2022-07-29T05:25:25;3.92;;;1.90;;
13660;SDS011;6903;49.480;11.102;2022-07-29T05:27:52;4.47;;;2.40;;
13660;SDS011;6903;49.480;11.102;2022-07-29T05:30:18;2.78;;;2.13;;
13660;SDS011;6903;49.480;11.102;2022-07-29T05:32:43;4.00;;;2.47;;
13660;SDS011;6903;49.480;11.102;2022-07-29T05:35:08;3.08;;;2.35;;
13660;SDS011;6903;49.480;11.102;2022-07-29T05:37:34;5.70;;;2.30;;
13660;SDS011;6903;49.480;11.102;2022-07-29T05:39:59;4.97;;;2.30;;
13660;SDS011;6903;49.480;11.102;2022-07-29T05:42:25;4.55;;;2.13;;
13660;SDS011;6903;49.480;11.102;2022-07-29T05:44:51;5.07;;;2.33;;
13660;SDS011;6903;49.480;11.102;2022-07-29T05:47:16;4.30;;;2.15;;
13660;SDS011;6903;49.480;11.102;2022-07-29T05:49:42;3.40;;;2.03;;
13660;SDS011;6903;49.480;11.102;2022-07-29T05:52:07;5.00;;;2.20;;
13660;SDS011;6903;49.480;11.102;2022-07-29T05:54:34;5.20;;;2.50;;
13660;SDS011;6903;49.480;11.102;2022-07-29T05:57:00;3.63;;;2.00;;
13660;SDS011;6903;49.480;11.102;2022-07-29T05:59:25;4.10;;;2.08;;
13660;SDS011;6903;49.480;11.102;2022-07-29T06:01:51;3.53;;;2.30;;
13660;SDS011;6903;49.480;11.102;2022-07-29T06:04:16;4.43;;;2.30;;
13660;SDS011;6903;49.480;11.102;2022-07-29T06:06:41;5.78;;;2.50;;
13660;SDS011;6903;49.480;11.102;2022-07-29T06:09:07;4.30;;;2.30;;
13660;SDS011;6903;49.480;11.102;2022-07-29T06:11:32;4.78;;;2.35;;
13660;SDS011;6903;49.480;11.102;2022-07-29T06:13:58;5.50;;;2.63;;
13660;SDS011;6903;49.480;11.102;2022-07-29T06:16:23;5.15;;;2.97;;
13660;SDS011;6903;49.480;11.102;2022-07-29T06:18:48;5.00;;;2.30;;
13660;SDS011;6903;49.480;11.102;2022-07-29T06:21:14;2.88;;;2.45;;
13660;SDS011;6903;49.480;11.102;2022-07-29T06:23:39;6.78;;;2.45;;
13660;SDS011;6903;49.480;11.102;2022-07-29T06:26:04;5.25;;;2.40;;
13660;SDS011;6903;49.480;11.102;2022-07-29T06:28:31;3.35;;;2.30;;
13660;SDS011;6903;49.480;11.102;2022-07-29T06:30:56;5.80;;;2.60;;
13660;SDS011;6903;49.480;11.102;2022-07-29T06:33:22;4.20;;;2.45;;
13660;SDS011;6903;49.480;11.102;2022-07-29T06:35:47;5.20;;;2.42;;
13660;SDS011;6903;49.480;11.102;2022-07-29T06:38:14;5.00;;;2.45;;
13660;SDS011;6903;49.480;11.102;2022-07-29T06:40:41;5.45;;;2.40;;
13660;SDS011;6903;49.480;11.102;2022-07-29T06:43:29;3.30;;;2.50;;
13660;SDS011;6903;49.480;11.102;2022-07-29T06:46:10;6.25;;;2.70;;
13660;SDS011;6903;49.480;11.102;2022-07-29T06:48:37;4.85;;;2.88;;
13660;SDS011;6903;49.480;11.102;2022-07-29T06:51:04;3.58;;;3.00;;
13660;SDS011;6903;49.480;11.102;2022-07-29T06:53:30;7.07;;;2.83;;
13660;SDS011;6903;49.480;11.102;2022-07-29T06:55:56;5.55;;;2.90;;
13660;SDS011;6903;49.480;11.102;2022-07-29T06:58:23;4.13;;;2.67;;
13660;SDS011;6903;49.480;11.102;2022-07-29T07:00:48;3.20;;;2.53;;
13660;SDS011;6903;49.480;11.102;2022-07-29T07:03:15;3.15;;;2.58;;
13660;SDS011;6903;49.480;11.102;2022-07-29T07:05:41;3.08;;;2.55;;
13660;SDS011;6903;49.480;11.102;2022-07-29T07:08:06;3.55;;;2.40;;
13660;SDS011;6903;49.480;11.102;2022-07-29T07:10:33;2.80;;;2.55;;
13660;SDS011;6903;49.480;11.102;2022-07-29T07:12:59;4.28;;;2.70;;
13660;SDS011;6903;49.480;11.102;2022-07-29T07:15:24;3.03;;;2.70;;
13660;SDS011;6903;49.480;11.102;2022-07-29T07:17:50;4.68;;;2.72;;
13660;SDS011;6903;49.480;11.102;2022-07-29T07:20:15;5.47;;;2.90;;
13660;SDS011;6903;49.480;11.102;2022-07-29T07:22:41;4.20;;;2.50;;
13660;SDS011;6903;49.480;11.102;2022-07-29T07:25:07;3.42;;;2.67;;
13660;SDS011;6903;49.480;11.102;2022-07-29T07:27:32;6.45;;;2.90;;
13660;SDS011;6903;49.480;11.102;2022-07-29T07:29:58;6.50;;;2.92;;
13660;SDS011;6903;49.480;11.102;2022-07-29T07:32:23;4.28;;;2.90;;
13660;SDS011;6903;49.480;11.102;2022-07-29T07:34:48;4.00;;;2.80;;
13660;SDS011;6903;49.480;11.102;2022-07-29T07:37:14;4.65;;;2.70;;
13660;SDS011;6903;49.480;11.102;2022-07-29T07:39:40;3.65;;;2.53;;
13660;SDS011;6903;49.480;11.102;2022-07-29T07:42:05;3.53;;;2.45;;
13660;SDS011;6903;49.480;11.102;2022-07-29T07:44:31;6.97;;;2.90;;
13660;SDS011;6903;49.480;11.102;2022-07-29T07:46:56;4.95;;;2.78;;
13660;SDS011;6903;49.480;11.102;2022-07-29T07:49:21;3.83;;;3.00;;
13660;SDS011;6903;49.480;11.102;2022-07-29T07:51:47;3.50;;;2.80;;
13660;SDS011;6903;49.480;11.102;2022-07-29T07:54:12;2.95;;;2.65;;
13660;SDS011;6903;49.480;11.102;2022-07-29T07:56:37;3.80;;;2.67;;
13660;SDS011;6903;49.480;11.102;2022-07-29T07:59:02;6.18;;;2.92;;
13660;SDS011;6903;49.480;11.102;2022-07-29T08:01:28;3.58;;;2.70;;
13660;SDS011;6903;49.480;11.102;2022-07-29T08:03:53;4.25;;;2.75;;
13660;SDS011;6903;49.480;11.102;2022-07-29T08:06:18;6.93;;;3.05;;
13660;SDS011;6903;49.480;11.102;2022-07-29T08:08:44;4.70;;;2.75;;
13660;SDS011;6903;49.480;11.102;2022-07-29T08:11:09;6.25;;;2.95;;
13660;SDS011;6903;49.480;11.102;2022-07-29T08:13:34;3.10;;;2.80;;
13660;SDS011;6903;49.480;11.102;2022-07-29T08:16:01;4.63;;;3.15;;
13660;SDS011;6903;49.480;11.102;2022-07-29T08:18:30;5.78;;;2.90;;
13660;SDS011;6903;49.480;11.102;2022-07-29T08:20:56;5.25;;;2.88;;
13660;SDS011;6903;49.480;11.102;2022-07-29T08:23:22;4.07;;;3.20;;
13660;SDS011;6903;49.480;11.102;2022-07-29T08:25:48;3.72;;;2.83;;
13660;SDS011;6903;49.480;11.102;2022-07-29T08:28:14;3.40;;;2.95;;
13660;SDS011;6903;49.480;11.102;2022-07-29T08:30:39;4.28;;;3.20;;
13660;SDS011;6903;49.480;11.102;2022-07-29T08:33:05;4.07;;;2.50;;
13660;SDS011;6903;49.480;11.102;2022-07-29T08:35:30;3.95;;;2.90;;
13660;SDS011;6903;49.480;11.102;2022-07-29T08:37:55;3.47;;;3.03;;
13660;SDS011;6903;49.480;11.102;2022-07-29T08:40:22;6.95;;;2.70;;
13660;SDS011;6903;49.480;11.102;2022-07-29T08:42:48;5.40;;;3.00;;
13660;SDS011;6903;49.480;11.102;2022-07-29T08:45:14;6.50;;;3.20;;
13660;SDS011;6903;49.480;11.102;2022-07-29T08:47:40;5.43;;;3.13;;
13660;SDS011;6903;49.480;11.102;2022-07-29T08:50:06;5.43;;;3.10;;
13660;SDS011;6903;49.480;11.102;2022-07-29T08:52:34;3.72;;;3.00;;
13660;SDS011;6903;49.480;11.102;2022-07-29T08:55:02;5.60;;;3.40;;
13660;SDS011;6903;49.480;11.102;2022-07-29T08:57:28;3.70;;;2.80;;
13660;SDS011;6903;49.480;11.102;2022-07-29T08:59:55;5.22;;;3.60;;
13660;SDS011;6903;49.480;11.102;2022-07-29T09:02:24;4.15;;;3.05;;
13660;SDS011;6903;49.480;11.102;2022-07-29T09:04:53;4.32;;;3.30;;
13660;SDS011;6903;49.480;11.102;2022-07-29T09:07:19;7.47;;;3.40;;
13660;SDS011;6903;49.480;11.102;2022-07-29T09:09:44;3.72;;;3.03;;
13660;SDS011;6903;49.480;11.102;2022-07-29T09:12:10;3.65;;;3.33;;
13660;SDS011;6903;49.480;11.102;2022-07-29T09:14:37;3.55;;;2.85;;
13660;SDS011;6903;49.480;11.102;2022-07-29T09:17:02;4.07;;;3.38;;
13660;SDS011;6903;49.480;11.102;2022-07-29T09:19:31;4.75;;;2.90;;
13660;SDS011;6903;49.480;11.102;2022-07-29T09:22:03;5.22;;;3.10;;
13660;SDS011;6903;49.480;11.102;2022-07-29T09:26:59;7.20;;;3.05;;
13660;SDS011;6903;49.480;11.102;2022-07-29T09:29:24;4.97;;;2.90;;
13660;SDS011;6903;49.480;11.102;2022-07-29T09:31:51;3.90;;;2.67;;
13660;SDS011;6903;49.480;11.102;2022-07-29T09:34:22;3.55;;;2.90;;
13660;SDS011;6903;49.480;11.102;2022-07-29T09:36:49;5.18;;;2.90;;
13660;SDS011;6903;49.480;11.102;2022-07-29T09:39:26;3.22;;;2.40;;
13660;SDS011;6903;49.480;11.102;2022-07-29T09:42:01;3.25;;;2.95;;
13660;SDS011;6903;49.480;11.102;2022-07-29T09:44:40;5.50;;;3.03;;
13660;SDS011;6903;49.480;11.102;2022-07-29T09:47:10;3.40;;;3.10;;
13660;SDS011;6903;49.480;11.102;2022-07-29T09:49:49;4.85;;;3.40;;
13660;SDS011;6903;49.480;11.102;2022-07-29T09:52:19;3.83;;;2.78;;
13660;SDS011;6903;49.480;11.102;2022-07-29T09:54:45;5.32;;;3.50;;
13660;SDS011;6903;49.480;11.102;2022-07-29T09:57:21;3.65;;;3.08;;
13660;SDS011;6903;49.480;11.102;2022-07-29T09:59:59;3.58;;;3.15;;
13660;SDS011;6903;49.480;11.102;2022-07-29T10:02:32;4.60;;;3.17;;
13660;SDS011;6903;49.480;11.102;2022-07-29T10:05:00;3.25;;;2.83;;
13660;SDS011;6903;49.480;11.102;2022-07-29T10:07:50;4.40;;;3.35;;
13660;SDS011;6903;49.480;11.102;2022-07-29T10:10:23;4.75;;;3.30;;
13660;SDS011;6903;49.480;11.102;2022-07-29T10:12:50;4.70;;;3.30;;
13660;SDS011;6903;49.480;11.102;2022-07-29T10:15:18;4.78;;;3.45;;
13660;SDS011;6903;49.480;11.102;2022-07-29T10:17:45;4.45;;;3.42;;
13660;SDS011;6903;49.480;11.102;2022-07-29T10:20:12;5.00;;;3.70;;
13660;SDS011;6903;49.480;11.102;2022-07-29T10:22:39;4.80;;;3.70;;
13660;SDS011;6903;49.480;11.102;2022-07-29T10:25:05;4.47;;;3.80;;
13660;SDS011;6903;49.480;11.102;2022-07-29T10:27:31;3.75;;;3.45;;
13660;SDS011;6903;49.480;11.102;2022-07-29T10:29:56;3.75;;;3.42;;
13660;SDS011;6903;49.480;11.102;2022-07-29T10:32:31;5.10;;;3.40;;
13660;SDS011;6903;49.480;11.102;2022-07-29T10:43:53;4.38;;;3.60;;
13660;SDS011;6903;49.480;11.102;2022-07-29T10:46:21;5.03;;;3.67;;
13660;SDS011;6903;49.480;11.102;2022-07-29T10:49:03;4.88;;;3.92;;
13660;SDS011;6903;49.480;11.102;2022-07-29T10:52:11;4.97;;;3.70;;
13660;SDS011;6903;49.480;11.102;2022-07-29T10:59:44;7.75;;;3.83;;
13660;SDS011;6903;49.480;11.102;2022-07-29T11:02:40;5.28;;;3.75;;
13660;SDS011;6903;49.480;11.102;2022-07-29T11:07:29;3.95;;;3.65;;
13660;SDS011;6903;49.480;11.102;2022-07-29T11:15:07;6.43;;;3.80;;
13660;SDS011;6903;49.480;11.102;2022-07-29T11:20:30;5.70;;;3.90;;
13660;SDS011;6903;49.480;11.102;2022-07-29T11:23:23;6.45;;;4.20;;
13660;SDS011;6903;49.480;11.102;2022-07-29T11:31:39;4.57;;;3.97;;
13660;SDS011;6903;49.480;11.102;2022-07-29T11:39:31;5.35;;;4.20;;
13660;SDS011;6903;49.480;11.102;2022-07-29T11:47:33;4.60;;;4.07;;
13660;SDS011;6903;49.480;11.102;2022-07-29T11:50:01;7.65;;;5.00;;
13660;SDS011;6903;49.480;11.102;2022-07-29T11:52:38;5.40;;;4.57;;
13660;SDS011;6903;49.480;11.102;2022-07-29T11:55:10;7.00;;;4.40;;
13660;SDS011;6903;49.480;11.102;2022-07-29T11:57:44;4.78;;;3.95;;
13660;SDS011;6903;49.480;11.102;2022-07-29T12:00:28;5.60;;;4.20;;
13660;SDS011;6903;49.480;11.102;2022-07-29T12:02:56;5.43;;;4.40;;
13660;SDS011;6903;49.480;11.102;2022-07-29T12:05:30;4.53;;;4.05;;
13660;SDS011;6903;49.480;11.102;2022-07-29T12:08:04;4.40;;;4.00;;
13660;SDS011;6903;49.480;11.102;2022-07-29T12:10:38;7.47;;;4.00;;
13660;SDS011;6903;49.480;11.102;2022-07-29T12:13:05;8.48;;;4.03;;
13660;SDS011;6903;49.480;11.102;2022-07-29T12:15:31;4.68;;;4.07;;
13660;SDS011;6903;49.480;11.102;2022-07-29T12:17:56;6.95;;;4.20;;
13660;SDS011;6903;49.480;11.102;2022-07-29T12:20:22;4.05;;;3.63;;
13660;SDS011;6903;49.480;11.102;2022-07-29T12:22:49;4.32;;;3.90;;
13660;SDS011;6903;49.480;11.102;2022-07-29T12:25:15;4.30;;;3.90;;
13660;SDS011;6903;49.480;11.102;2022-07-29T12:27:42;5.88;;;3.58;;
13660;SDS011;6903;49.480;11.102;2022-07-29T12:30:11;4.35;;;3.83;;
13660;SDS011;6903;49.480;11.102;2022-07-29T12:32:43;4.68;;;3.90;;
13660;SDS011;6903;49.480;11.102;2022-07-29T12:35:15;4.93;;;3.80;;
13660;SDS011;6903;49.480;11.102;2022-07-29T12:37:45;3.75;;;3.30;;
13660;SDS011;6903;49.480;11.102;2022-07-29T12:40:16;5.45;;;3.40;;
13660;SDS011;6903;49.480;11.102;2022-07-29T12:45:49;5.35;;;3.60;;
13660;SDS011;6903;49.480;11.102;2022-07-29T12:48:17;3.58;;;3.28;;
13660;SDS011;6903;49.480;11.102;2022-07-29T12:50:53;4.60;;;3.55;;
13660;SDS011;6903;49.480;11.102;2022-07-29T12:53:22;3.80;;;3.50;;
13660;SDS011;6903;49.480;11.102;2022-07-29T12:55:49;5.30;;;3.47;;
13660;SDS011;6903;49.480;11.102;2022-07-29T12:58:32;3.78;;;3.40;;
13660;SDS011;6903;49.480;11.102;2022-07-29T13:01:04;3.92;;;3.50;;
13660;SDS011;6903;49.480;11.102;2022-07-29T13:06:35;5.70;;;3.35;;
13660;SDS011;6903;49.480;11.102;2022-07-29T13:09:11;3.50;;;3.10;;
13660;SDS011;6903;49.480;11.102;2022-07-29T13:11:48;3.47;;;3.28;;
13660;SDS011;6903;49.480;11.102;2022-07-29T13:14:34;3.83;;;3.17;;
13660;SDS011;6903;49.480;11.102;2022-07-29T13:17:08;4.22;;;3.33;;
13660;SDS011;6903;49.480;11.102;2022-07-29T13:19:44;4.18;;;3.35;;
13660;SDS011;6903;49.480;11.102;2022-07-29T13:22:12;4.20;;;3.67;;
13660;SDS011;6903;49.480;11.102;2022-07-29T13:27:35;4.13;;;3.35;;
13660;SDS011;6903;49.480;11.102;2022-07-29T13:30:04;6.60;;;3.63;;
13660;SDS011;6903;49.480;11.102;2022-07-29T13:32:34;4.28;;;3.88;;
13660;SDS011;6903;49.480;11.102;2022-07-29T13:35:02;5.30;;;3.40;;
13660;SDS011;6903;49.480;11.102;2022-07-29T13:37:30;5.63;;;3.80;;
13660;SDS011;6903;49.480;11.102;2022-07-29T13:39:57;8.30;;;3.70;;
13660;SDS011;6903;49.480;11.102;2022-07-29T13:42:24;4.00;;;3.03;;
13660;SDS011;6903;49.480;11.102;2022-07-29T13:44:50;4.65;;;3.10;;
13660;SDS011;6903;49.480;11.102;2022-07-29T13:47:16;5.53;;;3.28;;
13660;SDS011;6903;49.480;11.102;2022-07-29T13:49:45;5.50;;;3.35;;
13660;SDS011;6903;49.480;11.102;2022-07-29T13:52:11;5.53;;;3.70;;
13660;SDS011;6903;49.480;11.102;2022-07-29T13:54:36;5.32;;;3.55;;
13660;SDS011;6903;49.480;11.102;2022-07-29T13:57:03;8.35;;;3.75;;
13660;SDS011;6903;49.480;11.102;2022-07-29T13:59:29;5.38;;;3.65;;
13660;SDS011;6903;49.480;11.102;2022-07-29T14:01:54;3.75;;;3.38;;
13660;SDS011;6903;49.480;11.102;2022-07-29T14:04:20;3.40;;;3.10;;
13660;SDS011;6903;49.480;11.102;2022-07-29T14:06:46;5.35;;;3.28;;
13660;SDS011;6903;49.480;11.102;2022-07-29T14:09:11;4.18;;;3.25;;
13660;SDS011;6903;49.480;11.102;2022-07-29T14:11:37;4.10;;;3.15;;
13660;SDS011;6903;49.480;11.102;2022-07-29T14:14:03;2.85;;;2.65;;
13660;SDS011;6903;49.480;11.102;2022-07-29T14:16:28;3.38;;;3.08;;
13660;SDS011;6903;49.480;11.102;2022-07-29T14:18:54;4.30;;;2.60;;
13660;SDS011;6903;49.480;11.102;2022-07-29T14:21:19;4.28;;;2.60;;
13660;SDS011;6903;49.480;11.102;2022-07-29T14:23:44;3.13;;;2.92;;
13660;SDS011;6903;49.480;11.102;2022-07-29T14:26:10;2.70;;;2.50;;
13660;SDS011;6903;49.480;11.102;2022-07-29T14:28:35;3.40;;;3.10;;
13660;SDS011;6903;49.480;11.102;2022-07-29T14:31:00;3.40;;;2.85;;
13660;SDS011;6903;49.480;11.102;2022-07-29T14:33:26;4.90;;;3.20;;
13660;SDS011;6903;49.480;11.102;2022-07-29T14:35:51;5.65;;;3.20;;
13660;SDS011;6903;49.480;11.102;2022-07-29T14:38:16;4.28;;;3.03;;
13660;SDS011;6903;49.480;11.102;2022-07-29T14:40:42;3.33;;;2.97;;
13660;SDS011;6903;49.480;11.102;2022-07-29T14:43:07;4.43;;;3.30;;
13660;SDS011;6903;49.480;11.102;2022-07-29T14:45:32;3.92;;;3.30;;
13660;SDS011;6903;49.480;11.102;2022-07-29T14:47:58;3.72;;;3.38;;
13660;SDS011;6903;49.480;11.102;2022-07-29T14:50:24;4.00;;;3.17;;
13660;SDS011;6903;49.480;11.102;2022-07-29T14:52:51;4.70;;;3.40;;
13660;SDS011;6903;49.480;11.102;2022-07-29T14:55:16;4.13;;;3.72;;
13660;SDS011;6903;49.480;11.102;2022-07-29T14:57:42;5.10;;;3.88;;
13660;SDS011;6903;49.480;11.102;2022-07-29T15:00:07;5.80;;;3.50;;
13660;SDS011;6903;49.480;11.102;2022-07-29T15:02:34;5.78;;;2.90;;
13660;SDS011;6903;49.480;11.102;2022-07-29T15:04:59;4.55;;;4.13;;
13660;SDS011;6903;49.480;11.102;2022-07-29T15:07:25;4.63;;;3.30;;
13660;SDS011;6903;49.480;11.102;2022-07-29T15:09:50;5.07;;;4.10;;
13660;SDS011;6903;49.480;11.102;2022-07-29T15:12:16;6.32;;;3.83;;
13660;SDS011;6903;49.480;11.102;2022-07-29T15:14:41;4.22;;;3.83;;
13660;SDS011;6903;49.480;11.102;2022-07-29T15:17:06;4.47;;;3.58;;
13660;SDS011;6903;49.480;11.102;2022-07-29T15:19:32;3.90;;;3.50;;
13660;SDS011;6903;49.480;11.102;2022-07-29T15:21:57;4.60;;;3.63;;
13660;SDS011;6903;49.480;11.102;2022-07-29T15:24:23;6.00;;;3.47;;
13660;SDS011;6903;49.480;11.102;2022-07-29T15:26:48;4.85;;;3.10;;
13660;SDS011;6903;49.480;11.102;2022-07-29T15:29:14;3.88;;;3.50;;
13660;SDS011;6903;49.480;11.102;2022-07-29T15:31:39;5.75;;;3.78;;
13660;SDS011;6903;49.480;11.102;2022-07-29T15:34:05;4.28;;;3.70;;
13660;SDS011;6903;49.480;11.102;2022-07-29T15:36:30;6.07;;;3.85;;
13660;SDS011;6903;49.480;11.102;2022-07-29T15:38:56;4.90;;;4.35;;
13660;SDS011;6903;49.480;11.102;2022-07-29T15:41:21;4.55;;;3.72;;
13660;SDS011;6903;49.480;11.102;2022-07-29T15:43:47;4.97;;;4.38;;
13660;SDS011;6903;49.480;11.102;2022-07-29T15:46:16;5.15;;;3.95;;
13660;SDS011;6903;49.480;11.102;2022-07-29T15:49:02;5.35;;;3.80;;
13660;SDS011;6903;49.480;11.102;2022-07-29T15:51:29;4.45;;;4.05;;
13660;SDS011;6903;49.480;11.102;2022-07-29T15:53:54;5.00;;;3.80;;